createdAt,value
2018-01-17T00:02:18.392Z,9.13
2018-01-17T00:04:45.903Z,4.00
2018-01-17T00:07:13.447Z,7.50
2018-01-17T00:09:40.969Z,8.27
2018-01-17T00:12:08.519Z,3.87
2018-01-17T00:14:36.031Z,2.97
2018-01-17T00:17:03.596Z,4.90
2018-01-17T00:19:31.118Z,4.17
2018-01-17T00:21:58.714Z,2.77
2018-01-17T00:24:26.261Z,3.40
2018-01-17T00:26:53.779Z,1.63
2018-01-17T00:29:21.318Z,4.73
2018-01-17T00:31:48.836Z,3.50
2018-01-17T00:34:16.380Z,1.37
2018-01-17T00:36:43.899Z,3.07
2018-01-17T00:39:11.464Z,3.27
2018-01-17T00:41:38.983Z,4.50
2018-01-17T00:44:06.500Z,4.50
2018-01-17T00:46:34.048Z,1.23
2018-01-17T00:49:01.562Z,3.63
2018-01-17T00:51:29.108Z,1.77
2018-01-17T00:53:56.645Z,5.33
2018-01-17T00:56:24.189Z,1.70
2018-01-17T00:58:51.703Z,3.60
2018-01-17T01:01:19.251Z,3.30
2018-01-17T01:03:46.767Z,0.67
2018-01-17T01:06:14.331Z,0.77
2018-01-17T01:08:41.836Z,2.30
2018-01-17T01:11:10.116Z,3.23
2018-01-17T01:13:37.659Z,3.07
2018-01-17T01:16:05.161Z,3.80
2018-01-17T01:18:33.471Z,5.50
2018-01-17T01:21:00.970Z,4.93
2018-01-17T01:23:28.524Z,3.43
2018-01-17T01:25:56.048Z,0.93
2018-01-17T01:28:23.548Z,1.17
2018-01-17T01:30:51.851Z,0.40
2018-01-17T01:33:19.363Z,0.40
2018-01-17T01:35:46.908Z,0.87
2018-01-17T01:38:14.423Z,0.43
2018-01-17T01:40:41.951Z,3.60
2018-01-17T01:43:09.455Z,0.40
2018-01-17T01:45:37.007Z,2.93
2018-01-17T01:48:04.527Z,3.53
2018-01-17T01:50:32.807Z,1.70
2018-01-17T01:53:00.374Z,0.40
2018-01-17T01:55:27.891Z,0.30
2018-01-17T01:57:55.439Z,2.10
2018-01-17T02:00:23.719Z,5.60
2018-01-17T02:02:52.038Z,0.90
2018-01-17T02:05:19.544Z,2.00
2018-01-17T02:07:47.098Z,1.87
2018-01-17T02:10:14.618Z,1.97
2018-01-17T02:12:42.188Z,0.73
2018-01-17T02:15:09.711Z,0.90
2018-01-17T02:17:37.228Z,1.20
2018-01-17T02:20:04.767Z,2.43
2018-01-17T02:22:32.276Z,3.97
2018-01-17T02:24:59.827Z,2.53
2018-01-17T02:27:27.331Z,5.20
2018-01-17T02:29:55.639Z,3.43
2018-01-17T02:32:23.148Z,4.60
2018-01-17T02:34:50.688Z,3.90
2018-01-17T02:37:18.200Z,5.67
2018-01-17T02:39:57.478Z,2.83
2018-01-17T02:42:24.996Z,2.80
2018-01-17T02:44:52.564Z,7.07
2018-01-17T02:47:20.957Z,2.53
2018-01-17T02:49:48.486Z,7.43
2018-01-17T02:52:16.041Z,6.03
2018-01-17T02:54:43.557Z,5.60
2018-01-17T02:57:11.104Z,3.57
2018-01-17T02:59:38.616Z,2.93
2018-01-17T03:02:06.164Z,6.90
2018-01-17T03:04:34.476Z,5.57
2018-01-17T03:07:02.025Z,4.20
2018-01-17T03:09:30.316Z,1.90
2018-01-17T03:11:58.628Z,11.33
2018-01-17T03:14:26.148Z,14.67
2018-01-17T03:16:54.080Z,6.73
2018-01-17T03:19:21.596Z,6.03
2018-01-17T03:21:49.110Z,8.30
2018-01-17T03:24:16.668Z,5.97
2018-01-17T03:26:44.948Z,4.83
2018-01-17T03:29:12.495Z,4.67
2018-01-17T03:31:40.012Z,3.63
2018-01-17T03:34:07.566Z,3.97
2018-01-17T03:36:35.087Z,6.27
2018-01-17T03:39:02.634Z,7.10
2018-01-17T03:41:30.154Z,7.87
2018-01-17T03:43:57.725Z,4.50
2018-01-17T03:46:25.244Z,5.23
2018-01-17T03:48:53.524Z,2.27
2018-01-17T03:51:21.847Z,15.87
2018-01-17T03:53:49.368Z,1.40
2018-01-17T03:56:16.912Z,5.20
2018-01-17T03:58:44.425Z,6.87
2018-01-17T04:01:12.748Z,2.90
2018-01-17T04:03:40.263Z,6.70
2018-01-17T04:06:07.783Z,6.03
2018-01-17T04:08:35.329Z,5.40
2018-01-17T04:11:03.608Z,5.50
2018-01-17T04:13:31.159Z,5.70
2018-01-17T04:15:58.703Z,7.50
2018-01-17T04:18:26.256Z,6.30
2018-01-17T04:20:54.167Z,3.47
2018-01-17T04:23:21.711Z,11.00
2018-01-17T04:25:49.239Z,4.83
2018-01-17T04:28:16.799Z,4.93
2018-01-17T04:30:44.311Z,5.63
2018-01-17T04:33:12.605Z,7.13
2018-01-17T04:35:40.932Z,8.90
2018-01-17T04:38:09.216Z,11.73
2018-01-17T04:40:36.764Z,7.30
2018-01-17T04:43:04.275Z,9.57
2018-01-17T04:45:31.819Z,2.13
2018-01-17T04:47:59.335Z,11.60
2018-01-17T04:50:26.875Z,7.30
2018-01-17T04:52:54.385Z,3.10
2018-01-17T04:55:21.959Z,5.70
2018-01-17T04:57:49.488Z,8.63
2018-01-17T05:00:17.008Z,4.67
2018-01-17T05:02:44.560Z,5.43
2018-01-17T05:05:12.073Z,4.67
2018-01-17T05:07:40.372Z,6.87
2018-01-17T05:10:07.888Z,5.80
2018-01-17T05:12:35.471Z,8.57
2018-01-17T05:15:02.985Z,3.13
2018-01-17T05:17:30.547Z,3.60
2018-01-17T05:19:58.053Z,1.40
2018-01-17T05:22:25.595Z,1.53
2018-01-17T05:24:53.136Z,0.87
2018-01-17T05:27:20.687Z,1.90
2018-01-17T05:29:48.208Z,5.33
2018-01-17T05:32:16.547Z,0.80
2018-01-17T05:34:44.064Z,0.80
2018-01-17T05:37:12.349Z,0.77
2018-01-17T05:39:39.914Z,0.63
2018-01-17T05:42:07.428Z,2.87
2018-01-17T05:44:34.980Z,0.70
2018-01-17T05:47:03.275Z,1.80
2018-01-17T05:49:31.605Z,3.40
2018-01-17T05:51:59.132Z,3.33
2018-01-17T05:54:27.485Z,6.00
2018-01-17T05:56:54.998Z,3.10
2018-01-17T05:59:23.308Z,2.20
2018-01-17T06:01:50.821Z,0.93
2018-01-17T06:04:18.392Z,1.73
2018-01-17T06:06:45.924Z,2.53
2018-01-17T06:09:13.444Z,4.00
2018-01-17T06:11:41.008Z,3.83
2018-01-17T06:14:08.521Z,2.13
2018-01-17T06:16:36.838Z,2.73
2018-01-17T06:19:04.347Z,2.70
2018-01-17T06:21:31.929Z,2.50
2018-01-17T06:23:59.438Z,3.37
2018-01-17T06:26:27.846Z,5.97
2018-01-17T06:28:55.358Z,2.40
2018-01-17T06:31:22.913Z,3.77
2018-01-17T06:33:50.420Z,0.90
2018-01-17T06:36:18.746Z,6.57
2018-01-17T06:38:46.271Z,8.40
2018-01-17T06:41:13.828Z,1.60
2018-01-17T06:43:41.349Z,4.87
2018-01-17T06:46:08.903Z,5.77
2018-01-17T06:48:36.424Z,11.90
2018-01-17T06:51:04.009Z,7.40
2018-01-17T06:53:31.522Z,10.50
2018-01-17T06:55:59.821Z,13.73
2018-01-17T06:58:27.386Z,14.80
2018-01-17T07:00:55.664Z,6.27
2018-01-17T07:03:23.988Z,8.80
2018-01-17T07:05:51.532Z,9.17
2018-01-17T07:08:19.844Z,11.20
2018-01-17T07:10:47.361Z,13.93
2018-01-17T07:13:14.920Z,8.30
2018-01-17T07:15:42.442Z,17.20
2018-01-17T07:18:10.786Z,14.40
2018-01-17T07:20:38.320Z,1.80
2018-01-17T07:23:05.837Z,4.87
2018-01-17T07:25:33.379Z,2.10
2018-01-17T07:28:00.914Z,4.40
2018-01-17T07:30:29.236Z,6.30
2018-01-17T07:32:56.752Z,8.33
2018-01-17T07:35:24.300Z,4.10
2018-01-17T07:37:51.824Z,5.80
2018-01-17T07:40:20.148Z,9.60
2018-01-17T07:42:47.691Z,6.70
2018-01-17T07:45:15.244Z,3.90
2018-01-17T07:47:42.757Z,5.70
2018-01-17T07:50:10.323Z,1.57
2018-01-17T07:52:37.850Z,2.77
2018-01-17T07:55:05.367Z,3.90
2018-01-17T07:57:32.915Z,2.00
2018-01-17T08:00:01.191Z,4.53
2018-01-17T08:02:28.751Z,5.17
2018-01-17T08:04:56.272Z,4.13
2018-01-17T08:07:23.826Z,3.30
2018-01-17T08:09:51.344Z,3.57
2018-01-17T08:12:18.884Z,3.17
2018-01-17T08:14:46.396Z,5.33
2018-01-17T08:17:13.968Z,6.93
2018-01-17T08:19:41.491Z,11.10
2018-01-17T08:22:09.764Z,6.43
2018-01-17T08:24:37.350Z,13.20
2018-01-17T08:27:04.868Z,3.20
2018-01-17T08:29:32.423Z,9.03
2018-01-17T08:31:59.943Z,10.67
2018-01-17T08:34:27.512Z,9.57
2018-01-17T08:36:55.025Z,9.30
2018-01-17T08:39:22.555Z,4.87
2018-01-17T08:41:50.135Z,5.10
2018-01-17T08:44:17.641Z,8.27
2018-01-17T08:46:45.188Z,6.37
2018-01-17T08:49:12.718Z,3.23
2018-01-17T08:51:40.280Z,6.80
2018-01-17T08:54:07.805Z,6.37
2018-01-17T08:56:35.319Z,6.43
2018-01-17T08:59:02.904Z,8.10
2018-01-17T09:01:30.420Z,17.23
2018-01-17T09:03:58.080Z,14.20
2018-01-17T09:06:25.607Z,10.53
2018-01-17T09:08:53.181Z,7.80
2018-01-17T09:11:20.707Z,16.40
2018-01-17T09:13:49.037Z,6.50
2018-01-17T09:16:16.555Z,12.70
2018-01-17T09:18:44.287Z,12.63
2018-01-17T09:21:11.809Z,4.13
2018-01-17T09:23:40.108Z,9.60
2018-01-17T09:26:07.659Z,10.40
2018-01-17T09:28:35.181Z,9.60
2018-01-17T09:31:02.787Z,8.37
2018-01-17T09:33:30.316Z,14.40
2018-01-17T09:35:57.872Z,7.87
2018-01-17T09:38:26.157Z,18.00
2018-01-17T09:40:53.720Z,16.90
2018-01-17T09:43:21.232Z,8.40
2018-01-17T09:45:48.784Z,9.10
2018-01-17T09:48:17.070Z,9.47
2018-01-17T09:50:45.385Z,8.97
2018-01-17T09:53:12.921Z,10.80
2018-01-17T09:55:40.480Z,5.93
2018-01-17T09:58:08.017Z,10.07
2018-01-17T10:00:35.608Z,7.30
2018-01-17T10:03:03.104Z,12.67
2018-01-17T10:05:30.654Z,8.43
2018-01-17T10:07:58.175Z,16.23
2018-01-17T10:10:26.799Z,13.77
2018-01-17T10:12:54.457Z,10.70
2018-01-17T10:15:21.968Z,19.93
2018-01-17T10:17:49.520Z,17.47
2018-01-17T10:20:17.039Z,24.70
2018-01-17T10:22:44.594Z,18.17
2018-01-17T10:25:12.112Z,18.30
2018-01-17T10:27:39.667Z,16.33
2018-01-17T10:30:07.987Z,11.43
2018-01-17T10:32:35.497Z,12.93
2018-01-17T10:35:03.080Z,7.77
2018-01-17T10:37:30.604Z,11.63
2018-01-17T10:39:58.129Z,14.83
2018-01-17T10:42:25.680Z,19.12
2018-01-17T10:44:53.208Z,14.03
2018-01-17T10:47:20.763Z,8.47
2018-01-17T10:49:49.048Z,10.13
2018-01-17T10:52:17.381Z,7.80
2018-01-17T10:54:44.896Z,7.10
2018-01-17T10:57:12.454Z,10.30
2018-01-17T10:59:39.972Z,11.63
2018-01-17T11:02:08.319Z,11.80
2018-01-17T11:04:35.841Z,11.70
2018-01-17T11:07:03.360Z,6.70
2018-01-17T11:09:30.924Z,17.40
2018-01-17T11:11:58.942Z,15.65
2018-01-17T11:14:26.515Z,12.23
2018-01-17T11:16:54.800Z,16.33
2018-01-17T11:19:22.348Z,8.97
2018-01-17T11:21:49.870Z,9.57
2018-01-17T11:24:17.645Z,10.50
2018-01-17T11:26:45.924Z,8.87
2018-01-17T11:29:14.233Z,7.37
2018-01-17T11:31:41.749Z,9.50
2018-01-17T11:34:09.312Z,10.63
2018-01-17T11:36:36.827Z,14.70
2018-01-17T11:39:05.157Z,19.63
2018-01-17T11:41:32.716Z,16.03
2018-01-17T11:44:00.232Z,7.50
2018-01-17T11:46:27.784Z,10.47
2018-01-17T11:48:55.325Z,19.10
2018-01-17T11:51:22.868Z,6.20
2018-01-17T11:53:50.386Z,5.67
2018-01-17T11:56:17.940Z,17.27
2018-01-17T11:58:45.456Z,4.17
2018-01-17T12:01:13.024Z,10.00
2018-01-17T12:03:40.541Z,7.17
2018-01-17T12:06:08.859Z,7.53
2018-01-17T12:08:36.380Z,9.90
2018-01-17T12:11:03.920Z,7.90
2018-01-17T12:13:31.432Z,9.07
2018-01-17T12:15:58.996Z,10.67
2018-01-17T12:18:26.523Z,10.73
2018-01-17T12:20:54.087Z,8.83
2018-01-17T12:23:21.604Z,12.13
2018-01-17T12:25:49.123Z,9.60
2018-01-17T12:28:16.671Z,5.13
2018-01-17T12:30:44.230Z,11.30
2018-01-17T12:33:11.808Z,18.37
2018-01-17T12:35:39.333Z,8.20
2018-01-17T12:38:06.889Z,8.77
2018-01-17T12:40:34.408Z,8.03
2018-01-17T12:43:01.951Z,7.90
2018-01-17T12:45:30.272Z,12.50
2018-01-17T12:47:57.836Z,9.70
2018-01-17T12:50:25.364Z,13.47
2018-01-17T12:52:52.916Z,6.53
2018-01-17T12:55:21.201Z,11.87
2018-01-17T12:57:48.753Z,14.20
2018-01-17T13:00:16.280Z,9.03
2018-01-17T13:02:43.848Z,19.30
2018-01-17T13:05:11.366Z,14.43
2018-01-17T13:07:38.916Z,12.90
2018-01-17T13:10:06.456Z,14.27
2018-01-17T13:12:33.971Z,7.10
2018-01-17T13:15:01.527Z,22.03
2018-01-17T13:17:29.048Z,19.70
2018-01-17T13:19:56.608Z,14.97
2018-01-17T13:22:24.129Z,17.87
2018-01-17T13:24:51.679Z,18.43
2018-01-17T13:27:19.188Z,16.47
2018-01-17T13:29:46.743Z,23.97
2018-01-17T13:32:14.268Z,15.83
2018-01-17T13:34:41.842Z,24.20
2018-01-17T13:37:09.359Z,14.90
2018-01-17T13:39:36.920Z,14.53
2018-01-17T13:42:04.440Z,11.73
2018-01-17T13:44:32.031Z,15.37
2018-01-17T13:46:59.577Z,20.93
2018-01-17T13:49:27.096Z,20.07
2018-01-17T13:51:55.412Z,14.10
2018-01-17T13:54:22.962Z,14.13
2018-01-17T13:56:51.273Z,11.60
2018-01-17T13:59:18.800Z,18.23
2018-01-17T14:01:46.356Z,15.70
2018-01-17T14:04:13.871Z,13.93
2018-01-17T14:06:41.425Z,18.57
2018-01-17T14:09:08.938Z,10.13
2018-01-17T14:11:36.496Z,13.23
2018-01-17T14:14:04.017Z,8.20
2018-01-17T14:16:31.568Z,10.87
2018-01-17T14:18:59.096Z,17.07
2018-01-17T14:21:27.375Z,18.27
2018-01-17T14:23:54.957Z,19.70
2018-01-17T14:26:23.240Z,14.50
2018-01-17T14:28:51.560Z,7.27
2018-01-17T14:31:19.077Z,16.57
2018-01-17T14:33:46.639Z,10.33
2018-01-17T14:36:14.153Z,10.00
2018-01-17T14:38:42.481Z,16.87
2018-01-17T14:41:10.005Z,14.03
2018-01-17T14:43:38.304Z,8.83
2018-01-17T14:46:06.627Z,6.40
2018-01-17T14:48:34.141Z,5.53
2018-01-17T14:51:01.691Z,8.80
2018-01-17T14:53:29.204Z,12.63
2018-01-17T14:55:57.524Z,10.87
2018-01-17T14:58:25.040Z,10.07
2018-01-17T15:00:52.596Z,16.97
2018-01-17T15:03:20.126Z,24.67
2018-01-17T15:05:47.690Z,7.77
2018-01-17T15:08:15.219Z,10.70
2018-01-17T15:10:43.573Z,17.70
2018-01-17T15:13:11.096Z,11.00
2018-01-17T15:15:38.645Z,10.83
2018-01-17T15:18:06.212Z,12.97
2018-01-17T15:20:33.752Z,20.33
2018-01-17T15:23:01.371Z,10.10
2018-01-17T15:25:28.965Z,12.30
2018-01-17T15:27:56.525Z,11.53
2018-01-17T15:30:24.044Z,6.30
2018-01-17T15:32:51.644Z,15.77
2018-01-17T15:35:19.151Z,15.90
2018-01-17T15:37:46.694Z,11.03
2018-01-17T15:40:14.265Z,18.10
2018-01-17T15:42:41.801Z,9.33
2018-01-17T15:45:09.356Z,18.00
2018-01-17T15:47:37.673Z,7.93
2018-01-17T15:50:05.228Z,20.13
2018-01-17T15:52:33.572Z,11.37
2018-01-17T15:55:01.144Z,14.93
2018-01-17T15:57:28.689Z,13.53
2018-01-17T15:59:56.208Z,15.17
2018-01-17T16:02:23.764Z,11.77
2018-01-17T16:04:51.280Z,18.33
2018-01-17T16:07:19.600Z,12.97
2018-01-17T16:09:47.119Z,14.77
2018-01-17T16:12:14.674Z,12.27
2018-01-17T16:14:42.184Z,14.93
2018-01-17T16:17:10.504Z,10.40
2018-01-17T16:19:38.017Z,16.30
2018-01-17T16:22:05.575Z,15.30
2018-01-17T16:24:33.084Z,24.10
2018-01-17T16:27:01.410Z,18.93
2018-01-17T16:29:28.933Z,27.23
2018-01-17T16:31:56.513Z,14.53
2018-01-17T16:34:24.044Z,16.43
2018-01-17T16:36:51.612Z,17.70
2018-01-17T16:39:19.139Z,20.07
2018-01-17T16:41:47.413Z,15.73
2018-01-17T16:44:15.747Z,15.17
2018-01-17T16:46:43.288Z,16.73
2018-01-17T16:49:11.600Z,26.33
2018-01-17T16:51:39.200Z,15.10
2018-01-17T16:54:06.776Z,18.00
2018-01-17T16:56:34.298Z,18.20
2018-01-17T16:59:02.803Z,6.30
2018-01-17T17:01:30.320Z,17.77
2018-01-17T17:03:57.892Z,14.43
2018-01-17T17:06:25.480Z,23.93
2018-01-17T17:08:53.000Z,11.37
2018-01-17T17:11:20.543Z,9.80
2018-01-17T17:13:48.061Z,16.87
2018-01-17T17:16:15.604Z,20.53
2018-01-17T17:18:43.884Z,15.17
2018-01-17T17:21:12.199Z,10.40
2018-01-17T17:23:39.717Z,38.07
2018-01-17T17:26:07.265Z,15.87
2018-01-17T17:28:34.795Z,17.60
2018-01-17T17:31:03.102Z,11.33
2018-01-17T17:33:30.690Z,19.10
2018-01-17T17:35:58.223Z,23.03
2018-01-17T17:38:26.557Z,20.20
2018-01-17T17:40:54.072Z,24.20
2018-01-17T17:43:21.624Z,26.33
2018-01-17T17:45:49.138Z,30.70
2018-01-17T17:48:17.502Z,15.33
2018-01-17T17:50:45.808Z,21.73
2018-01-17T17:53:14.176Z,20.27
2018-01-17T17:55:41.692Z,22.50
2018-01-17T17:58:09.212Z,10.97
2018-01-17T18:00:36.800Z,16.33
2018-01-17T18:03:04.321Z,16.27
2018-01-17T18:05:31.886Z,25.70
2018-01-17T18:07:59.412Z,18.33
2018-01-17T18:10:26.968Z,18.60
2018-01-17T18:12:54.504Z,16.87
2018-01-17T18:15:22.057Z,15.60
2018-01-17T18:17:50.330Z,19.67
2018-01-17T18:20:17.879Z,19.63
2018-01-17T18:22:45.392Z,15.63
2018-01-17T18:25:13.671Z,17.63
2018-01-17T18:27:41.993Z,19.40
2018-01-17T18:30:09.505Z,15.03
2018-01-17T18:32:37.058Z,16.43
2018-01-17T18:35:04.578Z,10.63
2018-01-17T18:37:32.912Z,12.07
2018-01-17T18:40:00.470Z,16.53
2018-01-17T18:42:28.016Z,20.93
2018-01-17T18:44:55.559Z,15.23
2018-01-17T18:47:23.076Z,12.87
2018-01-17T18:49:50.623Z,16.83
2018-01-17T18:52:18.136Z,13.40
2018-01-17T18:54:45.798Z,12.57
2018-01-17T18:57:13.320Z,29.23
2018-01-17T18:59:40.871Z,15.27
2018-01-17T19:02:08.415Z,12.33
2018-01-17T19:04:35.987Z,16.13
2018-01-17T19:07:03.514Z,19.17
2018-01-17T19:09:31.085Z,16.20
2018-01-17T19:11:58.624Z,14.53
2018-01-17T19:14:26.144Z,23.77
2018-01-17T19:16:53.705Z,16.03
2018-01-17T19:19:21.247Z,15.03
2018-01-17T19:21:48.804Z,17.47
2018-01-17T19:24:16.327Z,9.57
2018-01-17T19:26:43.888Z,21.57
2018-01-17T19:29:11.446Z,13.30
2018-01-17T19:31:39.001Z,18.23
2018-01-17T19:34:06.524Z,17.20
2018-01-17T19:36:34.083Z,14.53
2018-01-17T19:39:01.639Z,14.00
2018-01-17T19:41:29.237Z,24.33
2018-01-17T19:43:56.763Z,24.90
2018-01-17T19:46:24.336Z,17.13
2018-01-17T19:48:51.891Z,14.67
2018-01-17T19:51:19.405Z,22.50
2018-01-17T19:53:46.977Z,16.33
2018-01-17T19:56:14.498Z,22.10
2018-01-17T19:58:42.124Z,19.40
2018-01-17T20:01:09.646Z,20.63
2018-01-17T20:03:37.199Z,20.83
2018-01-17T20:06:04.711Z,19.80
2018-01-17T20:08:33.044Z,30.40
2018-01-17T20:11:00.572Z,21.43
2018-01-17T20:13:28.121Z,26.07
2018-01-17T20:15:55.644Z,19.10
2018-01-17T20:18:23.191Z,32.13
2018-01-17T20:20:50.712Z,19.10
2018-01-17T20:23:18.271Z,22.00
2018-01-17T20:25:45.854Z,29.27
2018-01-17T20:28:14.236Z,21.40
2018-01-17T20:30:41.755Z,23.83
2018-01-17T20:33:09.284Z,18.23
2018-01-17T20:35:36.843Z,24.47
2018-01-17T20:38:04.352Z,17.00
2018-01-17T20:40:32.676Z,17.97
2018-01-17T20:43:00.199Z,14.23
2018-01-17T20:45:28.524Z,27.63
2018-01-17T20:47:56.042Z,17.63
2018-01-17T20:50:23.599Z,25.43
2018-01-17T20:52:51.252Z,28.87
2018-01-17T20:55:18.853Z,20.20
2018-01-17T20:57:46.388Z,21.57
2018-01-17T21:00:13.956Z,27.43
2018-01-17T21:02:41.483Z,39.50
2018-01-17T21:05:08.996Z,29.03
2018-01-17T21:07:36.547Z,20.43
2018-01-17T21:10:04.071Z,19.23
2018-01-17T21:12:31.713Z,29.43
2018-01-17T21:14:59.248Z,29.40
2018-01-17T21:17:26.808Z,23.60
2018-01-17T21:19:54.323Z,17.03
2018-01-17T21:22:22.660Z,29.23
2018-01-17T21:24:50.172Z,18.77
2018-01-17T21:27:17.712Z,26.70
2018-01-17T21:29:45.228Z,16.63
2018-01-17T21:32:12.795Z,19.87
2018-01-17T21:34:41.079Z,25.40
2018-01-17T21:37:08.649Z,19.27
2018-01-17T21:39:36.931Z,22.87
2018-01-17T21:42:04.447Z,19.23
2018-01-17T21:44:37.708Z,22.67
2018-01-17T21:47:05.226Z,22.33
2018-01-17T21:49:32.787Z,19.67
2018-01-17T21:52:00.304Z,20.33
2018-01-17T21:54:27.910Z,31.13
2018-01-17T21:56:56.224Z,22.97
2018-01-17T21:59:24.808Z,22.80
2018-01-17T22:01:52.332Z,24.47
2018-01-17T22:04:19.888Z,34.33
2018-01-17T22:06:47.407Z,18.23
2018-01-17T22:09:15.725Z,29.20
2018-01-17T22:11:43.241Z,30.90
2018-01-17T22:14:11.579Z,26.93
2018-01-17T22:16:39.104Z,34.30
2018-01-17T22:19:06.624Z,17.87
2018-01-17T22:21:34.187Z,25.53
2018-01-17T22:24:02.505Z,30.17
2018-01-17T22:26:30.072Z,22.53
2018-01-17T22:28:57.592Z,23.43
2018-01-17T22:31:25.167Z,24.80
2018-01-17T22:33:52.687Z,41.83
2018-01-17T22:36:20.235Z,30.00
2018-01-17T22:38:48.527Z,17.37
2018-01-17T22:41:16.840Z,29.33
2018-01-17T22:43:44.360Z,27.53
2018-01-17T22:46:11.936Z,22.07
2018-01-17T22:48:39.459Z,17.40
2018-01-17T22:51:07.019Z,26.17
2018-01-17T22:53:34.575Z,20.20
2018-01-17T22:56:02.877Z,16.53
2018-01-17T22:58:30.432Z,22.23
2018-01-17T23:00:57.950Z,26.67
2018-01-17T23:03:25.496Z,20.73
2018-01-17T23:05:53.019Z,24.80
2018-01-17T23:08:20.568Z,29.30
2018-01-17T23:10:48.077Z,21.87
2018-01-17T23:13:15.642Z,17.87
2018-01-17T23:15:43.165Z,25.37
2018-01-17T23:18:10.729Z,22.67
2018-01-17T23:20:38.248Z,19.00
2018-01-17T23:23:05.792Z,27.87
2018-01-17T23:25:33.332Z,17.90
2018-01-17T23:28:00.875Z,25.87
2018-01-17T23:30:28.383Z,17.03
2018-01-17T23:32:55.945Z,19.50
2018-01-17T23:35:24.228Z,19.40
2018-01-17T23:37:52.552Z,20.60
2018-01-17T23:40:20.091Z,10.70
2018-01-17T23:42:48.378Z,35.00
2018-01-17T23:45:16.700Z,30.23
2018-01-17T23:47:44.207Z,14.97
2018-01-17T23:50:11.763Z,22.33
2018-01-17T23:52:39.280Z,25.17
2018-01-17T23:55:06.825Z,25.20
2018-01-17T23:57:34.346Z,25.03
